Time;durP1;ratioP1;P1;durP2;ratioP2;P2;SDS_P1;SDS_P2;PMS_P1;PMS_P2;Temp;Humidity;BMP_temperature;BMP_pressure;BME280_temperature;BME280_humidity;BME280_pressure;Samples;Min_cycle;Max_cycle;Signal;HPM_P1;HPM_P2
2023/01/14 00:00:43;;;;;;;5.10;1.10;;;9.20;99.90;;;;;;5021292;28;20480;-85
2023/01/14 00:03:10;;;;;;;7.20;1.33;;;9.20;99.90;;;;;;5016497;28;20045;-86
2023/01/14 00:05:36;;;;;;;10.85;1.83;;;9.30;99.90;;;;;;4998656;28;20484;-86
2023/01/14 00:08:02;;;;;;;10.00;1.42;;;9.30;99.90;;;;;;5003556;28;20038;-85
2023/01/14 00:10:54;;;;;;;11.45;1.33;;;9.30;99.90;;;;;;5023923;28;20045;-87
2023/01/14 00:13:19;;;;;;;9.25;1.20;;;9.20;99.90;;;;;;5019581;28;20030;-85
2023/01/14 00:16:04;;;;;;;5.28;1.00;;;9.20;99.90;;;;;;5014573;28;20049;-85
2023/01/14 00:18:32;;;;;;;6.60;0.95;;;9.20;99.90;;;;;;5013840;28;20380;-84
2023/01/14 00:21:18;;;;;;;6.78;1.17;;;9.20;99.90;;;;;;5015928;28;20069;-86
2023/01/14 00:23:44;;;;;;;6.78;1.30;;;9.20;99.90;;;;;;5018580;28;20033;-85
2023/01/14 00:26:15;;;;;;;4.40;1.27;;;9.10;99.90;;;;;;5010728;28;20045;-86
2023/01/14 00:28:56;;;;;;;4.85;1.20;;;9.10;99.90;;;;;;5023301;28;20036;-86
2023/01/14 00:31:42;;;;;;;;;;;;;;;;;;;;;
2023/01/14 00:34:09;;;;;;;12.37;1.03;;;9.20;99.90;;;;;;5014414;28;20032;-82
2023/01/14 00:36:35;;;;;;;7.38;1.40;;;9.20;99.90;;;;;;5014734;28;20022;-85
2023/01/14 00:39:02;;;;;;;8.20;1.60;;;9.20;99.90;;;;;;5017415;28;20344;-85
2023/01/14 00:41:31;;;;;;;3.28;1.08;;;9.20;99.90;;;;;;5015059;28;20345;-85
2023/01/14 00:43:59;;;;;;;4.38;1.35;;;9.30;99.90;;;;;;5014968;28;20112;-85
2023/01/14 00:46:31;;;;;;;3.20;1.20;;;9.50;99.90;;;;;;5014338;28;20044;-84
2023/01/14 00:48:58;;;;;;;5.75;1.20;;;9.20;99.90;;;;;;5014671;28;20041;-86
2023/01/14 00:51:24;;;;;;;4.43;1.47;;;9.20;99.90;;;;;;5014756;28;20022;-85
2023/01/14 00:53:50;;;;;;;9.45;1.20;;;9.20;99.90;;;;;;5014271;28;20488;-85
2023/01/14 00:56:19;;;;;;;5.70;1.15;;;9.30;99.90;;;;;;5013220;28;20475;-84
2023/01/14 00:58:45;;;;;;;3.15;0.98;;;9.10;99.90;;;;;;5012564;28;20487;-85
2023/01/14 01:01:11;;;;;;;5.22;1.10;;;9.20;99.90;;;;;;5013987;28;20337;-85
2023/01/14 01:03:48;;;;;;;6.50;1.27;;;9.20;99.90;;;;;;5010368;28;20022;-84
2023/01/14 01:06:20;;;;;;;6.57;1.03;;;9.20;99.90;;;;;;5014620;28;20029;-85
2023/01/14 01:08:46;;;;;;;7.07;1.40;;;9.50;99.90;;;;;;5016750;28;20026;-84
2023/01/14 01:11:12;;;;;;;5.75;1.20;;;9.20;99.90;;;;;;5012766;28;20049;-85
2023/01/14 01:13:38;;;;;;;7.60;1.67;;;9.20;99.90;;;;;;5018911;28;20100;-85
2023/01/14 01:16:11;;;;;;;9.27;1.40;;;9.30;99.90;;;;;;5013637;28;20041;-85
2023/01/14 01:19:02;;;;;;;7.25;0.98;;;9.20;99.90;;;;;;5015187;28;20106;-84
2023/01/14 01:21:27;;;;;;;5.57;1.20;;;9.10;99.90;;;;;;5017432;28;20030;-85
2023/01/14 01:24:19;;;;;;;3.03;0.88;;;9.20;99.90;;;;;;5018968;28;20054;-85
2023/01/14 01:26:48;;;;;;;8.70;1.52;;;9.20;99.90;;;;;;5018903;28;20042;-85
2023/01/14 01:29:14;;;;;;;5.45;0.98;;;9.20;99.90;;;;;;5013446;28;20050;-85
2023/01/14 01:31:40;;;;;;;4.95;1.17;;;9.20;99.90;;;;;;5021604;28;20065;-85
2023/01/14 01:34:06;;;;;;;5.82;1.38;;;9.10;99.90;;;;;;5013031;28;20072;-85
2023/01/14 01:36:31;;;;;;;5.53;1.30;;;9.00;99.90;;;;;;5014561;28;20444;-86
2023/01/14 01:38:57;;;;;;;6.65;1.30;;;9.00;99.90;;;;;;5016445;28;20337;-85
2023/01/14 01:41:30;;;;;;;7.38;1.52;;;9.00;99.90;;;;;;5017386;28;20034;-85
2023/01/14 01:44:12;;;;;;;5.05;1.40;;;9.00;99.90;;;;;;5012621;28;20034;-86
2023/01/14 01:46:39;;;;;;;5.47;1.02;;;9.10;99.90;;;;;;5014366;28;20096;-85
2023/01/14 01:49:17;;;;;;;10.98;1.70;;;9.10;99.90;;;;;;5013719;28;20046;-85
2023/01/14 01:51:54;;;;;;;5.60;1.23;;;9.10;99.90;;;;;;5012715;28;20018;-85
2023/01/14 01:54:26;;;;;;;7.55;1.40;;;9.10;99.90;;;;;;5012685;28;20030;-85
2023/01/14 01:57:05;;;;;;;10.27;1.40;;;9.00;99.90;;;;;;5013147;28;20034;-85
2023/01/14 01:59:35;;;;;;;8.30;1.75;;;9.10;99.90;;;;;;5021387;28;20044;-84
2023/01/14 02:02:02;;;;;;;8.27;1.48;;;9.00;99.90;;;;;;5012632;28;20060;-84
2023/01/14 02:04:34;;;;;;;8.70;1.65;;;9.00;99.90;;;;;;5015589;28;20283;-86
2023/01/14 02:06:59;;;;;;;8.60;1.50;;;9.00;99.90;;;;;;5013333;28;20033;-84
2023/01/14 02:09:25;;;;;;;8.60;1.23;;;9.00;99.90;;;;;;5013873;28;20087;-85
2023/01/14 02:12:19;;;;;;;11.20;1.63;;;8.90;99.90;;;;;;5015908;28;20075;-85
2023/01/14 02:15:34;;;;;;;5.50;1.15;;;9.00;99.90;;;;;;5016506;28;20033;-85
2023/01/14 02:18:17;;;;;;;9.82;1.35;;;9.00;99.90;;;;;;4986238;28;20522;-84
2023/01/14 02:20:57;;;;;;;9.77;1.35;;;9.00;99.90;;;;;;5020203;28;20061;-85
2023/01/14 02:24:03;;;;;;;8.07;1.70;;;9.00;99.90;;;;;;5013304;28;20034;-86
2023/01/14 02:26:57;;;;;;;9.43;1.65;;;9.00;99.90;;;;;;5016905;28;20038;-87
2023/01/14 02:29:57;;;;;;;12.18;1.65;;;9.00;99.90;;;;;;5013016;28;20538;-85
2023/01/14 02:32:57;;;;;;;9.18;1.45;;;8.90;99.90;;;;;;5019826;28;20061;-87
2023/01/14 02:35:42;;;;;;;11.35;1.88;;;8.90;99.90;;;;;;5009678;28;20027;-85
2023/01/14 02:38:17;;;;;;;13.60;2.20;;;9.00;99.90;;;;;;4993840;28;20045;-85
2023/01/14 02:40:53;;;;;;;12.27;3.13;;;9.10;99.90;;;;;;4994724;28;20068;-85
2023/01/14 02:46:22;;;;;;;8.82;1.80;;;9.20;99.90;;;;;;4991467;28;20096;-85
2023/01/14 02:52:06;;;;;;;9.82;2.33;;;9.00;99.90;;;;;;4996354;28;20022;-87
2023/01/14 02:54:32;;;;;;;12.65;2.05;;;9.00;99.90;;;;;;4997164;28;20022;-87
2023/01/14 02:57:20;;;;;;;8.77;1.88;;;9.00;99.90;;;;;;4993098;28;20033;-86
2023/01/14 03:00:04;;;;;;;13.85;2.65;;;9.10;99.90;;;;;;5002081;28;20490;-87
2023/01/14 03:02:33;;;;;;;11.75;1.98;;;9.20;99.90;;;;;;4999954;28;20034;-87
2023/01/14 03:05:49;;;;;;;13.45;2.20;;;9.20;99.90;;;;;;5003574;28;20041;-87
2023/01/14 03:08:35;;;;;;;10.50;2.20;;;9.30;99.90;;;;;;4986314;28;20145;-83
2023/01/14 03:11:07;;;;;;;15.60;2.25;;;9.30;99.90;;;;;;4991551;28;20035;-84
2023/01/14 03:13:59;;;;;;;11.07;2.30;;;9.10;99.90;;;;;;4997522;28;20574;-84
2023/01/14 03:16:44;;;;;;;11.75;1.92;;;9.20;99.90;;;;;;4999489;28;20034;-85
2023/01/14 03:19:13;;;;;;;7.70;1.55;;;9.30;99.90;;;;;;4998574;28;20050;-82
2023/01/14 03:21:44;;;;;;;16.17;2.00;;;9.40;99.90;;;;;;4999060;28;20467;-85
2023/01/14 03:24:22;;;;;;;15.18;2.50;;;9.30;99.90;;;;;;4995905;28;20338;-85
2023/01/14 03:26:51;;;;;;;8.05;1.70;;;9.30;99.90;;;;;;4995078;28;20039;-85
2023/01/14 03:29:25;;;;;;;12.85;2.00;;;9.30;99.90;;;;;;4996038;28;20042;-86
2023/01/14 03:32:08;;;;;;;14.18;2.30;;;9.30;99.90;;;;;;4996470;28;20038;-83
2023/01/14 03:34:40;;;;;;;8.07;2.08;;;9.40;99.90;;;;;;4995660;28;20038;-84
2023/01/14 03:37:11;;;;;;;15.10;2.50;;;9.30;99.90;;;;;;4997106;28;20031;-84
2023/01/14 03:39:44;;;;;;;7.72;2.58;;;9.30;99.90;;;;;;4996743;28;20030;-86
2023/01/14 03:45:29;;;;;;;15.05;2.20;;;9.40;99.90;;;;;;4994370;28;20062;-82
2023/01/14 03:47:56;;;;;;;11.55;2.35;;;9.40;99.90;;;;;;4996704;28;20049;-82
2023/01/14 03:50:30;;;;;;;14.82;3.13;;;9.40;99.90;;;;;;4996008;28;20396;-82
2023/01/14 03:53:20;;;;;;;15.60;3.05;;;9.50;99.90;;;;;;4995701;28;20034;-82
2023/01/14 03:55:58;;;;;;;16.95;2.60;;;9.40;99.90;;;;;;4997441;28;20026;-83
2023/01/14 03:58:34;;;;;;;15.73;2.58;;;9.30;99.90;;;;;;4995544;28;20030;-84
2023/01/14 04:01:15;;;;;;;16.92;2.72;;;9.30;99.90;;;;;;4998996;28;20117;-82
2023/01/14 04:03:42;;;;;;;17.02;2.55;;;9.30;99.90;;;;;;4995151;28;20026;-84
2023/01/14 04:06:11;;;;;;;12.55;2.97;;;9.40;99.90;;;;;;4995865;28;20117;-82
2023/01/14 04:08:36;;;;;;;14.02;2.83;;;9.40;99.90;;;;;;4993268;28;20101;-82
2023/01/14 04:11:02;;;;;;;16.95;3.63;;;9.40;99.90;;;;;;4993558;28;20520;-81
2023/01/14 04:16:12;;;;;;;20.00;3.47;;;9.50;99.90;;;;;;4994567;28;20491;-83
2023/01/14 04:18:38;;;;;;;19.70;3.80;;;9.40;99.90;;;;;;4994024;28;20030;-82
2023/01/14 04:21:03;;;;;;;14.65;2.88;;;9.60;99.90;;;;;;4993972;28;20404;-82
2023/01/14 04:23:29;;;;;;;21.90;3.83;;;9.60;99.90;;;;;;4993954;28;20038;-82
2023/01/14 04:25:56;;;;;;;18.23;3.05;;;9.50;99.90;;;;;;4993516;28;20046;-82
2023/01/14 04:28:22;;;;;;;20.05;4.15;;;9.60;99.90;;;;;;4993908;28;20026;-82
2023/01/14 04:30:49;;;;;;;16.13;3.50;;;9.50;99.90;;;;;;4995317;28;20092;-83
2023/01/14 04:33:15;;;;;;;14.88;3.00;;;9.50;99.90;;;;;;4994234;28;20420;-83
2023/01/14 04:35:43;;;;;;;16.20;3.47;;;9.60;99.90;;;;;;4994176;28;20050;-83
2023/01/14 04:38:09;;;;;;;23.55;4.32;;;9.60;99.90;;;;;;4995254;28;20472;-81
2023/01/14 04:40:34;;;;;;;20.75;4.60;;;9.50;99.90;;;;;;4994442;28;20038;-81
2023/01/14 04:43:00;;;;;;;23.05;4.10;;;9.60;99.90;;;;;;4993903;28;20105;-82
2023/01/14 04:45:25;;;;;;;16.25;4.90;;;9.50;99.90;;;;;;4998395;28;20574;-82
2023/01/14 04:47:51;;;;;;;17.63;4.28;;;9.40;99.90;;;;;;4995929;28;20387;-82
2023/01/14 04:50:33;;;;;;;23.85;4.13;;;9.50;99.90;;;;;;4993925;28;20045;-82
2023/01/14 04:53:11;;;;;;;25.35;4.80;;;9.50;99.90;;;;;;4993730;28;20046;-81
2023/01/14 04:55:40;;;;;;;17.83;3.90;;;9.50;99.90;;;;;;4994190;28;20354;-81
2023/01/14 04:58:07;;;;;;;28.90;6.47;;;9.50;99.90;;;;;;4992804;28;20031;-83
2023/01/14 05:00:33;;;;;;;40.87;13.93;;;9.50;99.90;;;;;;4994288;28;20444;-82
2023/01/14 05:03:02;;;;;;;17.73;4.38;;;9.50;99.90;;;;;;4994467;28;20264;-83
2023/01/14 05:05:28;;;;;;;23.50;4.40;;;9.50;99.90;;;;;;4994433;28;20142;-84
2023/01/14 05:07:55;;;;;;;26.35;3.75;;;9.60;99.90;;;;;;4993719;28;20058;-87
2023/01/14 05:10:20;;;;;;;18.23;3.53;;;9.60;99.90;;;;;;4996517;28;20114;-85
2023/01/14 05:12:58;;;;;;;23.05;4.32;;;9.60;99.90;;;;;;4994729;28;20285;-84
2023/01/14 05:15:26;;;;;;;31.60;5.30;;;9.90;99.90;;;;;;4996987;28;20041;-82
2023/01/14 05:17:53;;;;;;;18.45;3.67;;;9.70;99.90;;;;;;4994692;28;20039;-83
2023/01/14 05:20:19;;;;;;;23.55;4.50;;;9.70;99.90;;;;;;4994386;28;20182;-82
2023/01/14 05:22:45;;;;;;;17.80;3.58;;;9.80;99.90;;;;;;4994621;28;20468;-83
2023/01/14 05:25:10;;;;;;;22.30;3.00;;;9.70;99.90;;;;;;4994114;28;20403;-82
2023/01/14 05:27:36;;;;;;;28.58;4.05;;;9.60;99.90;;;;;;4993476;28;20026;-81
2023/01/14 05:30:03;;;;;;;16.15;3.20;;;9.60;99.90;;;;;;4994982;28;20245;-83
2023/01/14 05:32:28;;;;;;;17.77;3.33;;;9.60;99.90;;;;;;5000965;28;20030;-83
2023/01/14 05:34:54;;;;;;;16.40;3.70;;;9.70;99.90;;;;;;5002302;28;20039;-83
2023/01/14 05:37:20;;;;;;;17.05;3.55;;;9.60;99.90;;;;;;5001317;28;20034;-83
2023/01/14 05:39:46;;;;;;;27.27;4.30;;;9.60;99.90;;;;;;4998622;28;20022;-83
2023/01/14 05:47:41;;;;;;;24.98;4.05;;;9.60;99.90;;;;;;4993699;28;20045;-84
2023/01/14 05:50:10;;;;;;;28.35;3.90;;;9.60;99.90;;;;;;4992555;28;20034;-82
2023/01/14 05:52:37;;;;;;;20.55;4.30;;;9.60;99.90;;;;;;4992381;28;20041;-84
2023/01/14 05:55:03;;;;;;;15.85;3.42;;;9.60;99.90;;;;;;4993412;28;20029;-83
2023/01/14 05:57:29;;;;;;;20.20;3.47;;;9.50;99.90;;;;;;4994229;28;20023;-83
2023/01/14 05:59:56;;;;;;;20.17;3.63;;;9.60;99.90;;;;;;4992477;28;20046;-82
2023/01/14 06:07:36;;;;;;;23.77;5.05;;;9.30;99.90;;;;;;4992892;28;20043;-82
2023/01/14 06:10:03;;;;;;;25.13;4.05;;;9.40;99.90;;;;;;4991565;28;20034;-82
2023/01/14 06:15:13;;;;;;;21.73;3.55;;;9.30;99.90;;;;;;4993057;28;20105;-81
2023/01/14 06:17:45;;;;;;;34.20;4.32;;;9.20;99.90;;;;;;4992545;28;20482;-83
2023/01/14 06:20:11;;;;;;;25.85;4.15;;;9.40;99.90;;;;;;4991342;28;20103;-84
2023/01/14 06:22:37;;;;;;;24.15;4.45;;;9.30;99.90;;;;;;4991110;28;20038;-84
2023/01/14 06:25:03;;;;;;;22.45;3.85;;;9.20;99.90;;;;;;4992508;28;20030;-83
2023/01/14 06:27:28;;;;;;;26.67;4.40;;;9.30;99.90;;;;;;4991935;28;20054;-83
2023/01/14 06:29:55;;;;;;;30.17;4.38;;;9.40;99.90;;;;;;4992704;28;20035;-83
2023/01/14 06:32:21;;;;;;;23.40;4.63;;;9.40;99.90;;;;;;4996500;28;20361;-82
2023/01/14 06:34:46;;;;;;;20.02;4.07;;;9.40;99.90;;;;;;4998653;28;20048;-83
2023/01/14 06:37:12;;;;;;;29.10;4.45;;;9.50;99.90;;;;;;4998481;28;20022;-83
2023/01/14 06:39:37;;;;;;;23.35;4.00;;;9.40;99.90;;;;;;4998622;28;20030;-87
2023/01/14 06:42:04;;;;;;;24.90;3.67;;;9.50;99.90;;;;;;4999766;28;20080;-86
2023/01/14 06:44:29;;;;;;;26.35;4.28;;;9.40;99.90;;;;;;4998370;28;20166;-84
2023/01/14 06:46:55;;;;;;;25.90;3.70;;;9.50;99.90;;;;;;4998774;28;20039;-83
2023/01/14 06:49:20;;;;;;;20.02;4.47;;;9.50;99.90;;;;;;4998412;28;20038;-80
2023/01/14 06:51:46;;;;;;;30.27;6.18;;;9.50;99.90;;;;;;4998503;28;20062;-85
2023/01/14 06:54:13;;;;;;;19.63;3.40;;;9.60;99.90;;;;;;4998035;28;20543;-84
2023/01/14 06:56:39;;;;;;;18.88;3.22;;;9.50;99.90;;;;;;4999414;28;20030;-84
2023/01/14 06:59:04;;;;;;;15.13;3.42;;;9.50;99.90;;;;;;4998628;28;20037;-82
2023/01/14 07:01:30;;;;;;;20.10;3.38;;;9.50;99.90;;;;;;4998956;28;20041;-85
2023/01/14 07:03:55;;;;;;;22.70;4.20;;;9.50;99.90;;;;;;4997870;28;20076;-83
2023/01/14 07:06:21;;;;;;;18.20;3.65;;;9.50;99.90;;;;;;4999291;28;20033;-86
2023/01/14 07:08:48;;;;;;;24.05;3.28;;;9.40;99.90;;;;;;4998572;28;20125;-83
2023/01/14 07:11:13;;;;;;;22.38;3.40;;;9.50;99.90;;;;;;4998379;28;20034;-85
2023/01/14 07:13:41;;;;;;;10.82;2.85;;;9.30;99.90;;;;;;4999061;28;20077;-87
2023/01/14 07:16:07;;;;;;;21.00;3.10;;;9.40;99.90;;;;;;4997781;28;20177;-84
2023/01/14 07:18:33;;;;;;;26.95;4.45;;;9.40;99.90;;;;;;4998058;28;20105;-82
2023/01/14 07:20:59;;;;;;;25.35;5.18;;;9.40;99.90;;;;;;4998167;28;20526;-80
2023/01/14 07:23:25;;;;;;;24.75;3.40;;;9.40;99.90;;;;;;4997721;28;20041;-83
2023/01/14 07:25:55;;;;;;;19.35;3.75;;;9.40;99.90;;;;;;4998439;28;20123;-84
2023/01/14 07:28:25;;;;;;;20.80;3.92;;;9.30;99.90;;;;;;4999028;28;20045;-85
2023/01/14 07:30:51;;;;;;;16.13;3.03;;;9.40;99.90;;;;;;4997883;28;20057;-83
2023/01/14 07:33:17;;;;;;;17.48;3.78;;;9.40;99.90;;;;;;4998768;28;20368;-84
2023/01/14 07:35:44;;;;;;;27.55;5.25;;;9.60;99.90;;;;;;5000541;28;20031;-85
2023/01/14 07:38:10;;;;;;;20.52;4.88;;;9.40;99.90;;;;;;4998291;28;20043;-83
2023/01/14 07:40:37;;;;;;;26.38;4.05;;;9.40;99.90;;;;;;4999010;28;20034;-85
2023/01/14 07:43:03;;;;;;;16.40;3.22;;;9.30;99.90;;;;;;4996283;28;20049;-83
2023/01/14 07:45:29;;;;;;;26.58;3.67;;;9.30;99.90;;;;;;4995636;28;20030;-83
2023/01/14 07:47:55;;;;;;;22.67;4.80;;;9.40;99.90;;;;;;4996479;28;20361;-87
2023/01/14 07:50:22;;;;;;;25.90;3.78;;;9.30;99.90;;;;;;4995600;28;20122;-83
2023/01/14 07:52:57;;;;;;;27.58;3.15;;;9.40;99.90;;;;;;4995809;28;20089;-85
2023/01/14 07:55:23;;;;;;;21.17;3.05;;;9.40;99.90;;;;;;4997338;28;20030;-83
2023/01/14 07:57:49;;;;;;;25.95;3.28;;;9.30;99.90;;;;;;4995599;28;20030;-87
2023/01/14 08:00:16;;;;;;;23.17;3.97;;;9.30;99.90;;;;;;4996102;28;20026;-85
2023/01/14 08:02:42;;;;;;;19.98;3.40;;;9.40;99.90;;;;;;4994826;28;20039;-84
2023/01/14 08:05:07;;;;;;;20.80;3.03;;;9.40;99.90;;;;;;4994335;28;20539;-84
2023/01/14 08:07:33;;;;;;;25.75;3.15;;;9.30;99.90;;;;;;4994532;28;20525;-85
2023/01/14 08:09:59;;;;;;;18.30;3.15;;;9.30;99.90;;;;;;4994496;28;20126;-85
2023/01/14 08:12:25;;;;;;;16.17;2.58;;;9.30;99.90;;;;;;4994095;28;20096;-85
2023/01/14 08:14:50;;;;;;;16.55;2.50;;;9.40;99.90;;;;;;4994626;28;20471;-84
2023/01/14 08:17:16;;;;;;;25.52;3.90;;;9.40;99.90;;;;;;4994842;28;20386;-84
2023/01/14 08:19:43;;;;;;;22.02;3.35;;;9.40;99.90;;;;;;4995058;28;20037;-84
2023/01/14 08:22:09;;;;;;;23.08;2.70;;;9.40;99.70;;;;;;4995065;28;20026;-83
2023/01/14 08:24:35;;;;;;;20.55;3.38;;;9.40;99.80;;;;;;4995082;28;20441;-88
2023/01/14 08:27:00;;;;;;;13.93;3.25;;;9.40;99.70;;;;;;4995729;28;20046;-83
2023/01/14 08:29:26;;;;;;;12.63;2.10;;;9.30;99.50;;;;;;4994477;28;20134;-82
2023/01/14 08:31:54;;;;;;;21.83;2.85;;;9.30;99.50;;;;;;4997280;28;20037;-87
2023/01/14 08:34:23;;;;;;;17.67;3.03;;;9.40;99.40;;;;;;5001891;28;20038;-84
2023/01/14 08:36:50;;;;;;;12.80;2.58;;;9.30;99.40;;;;;;4994597;28;20045;-87
2023/01/14 08:39:16;;;;;;;16.58;2.67;;;9.30;99.30;;;;;;4995367;28;20030;-85
2023/01/14 08:41:42;;;;;;;16.77;2.55;;;9.40;99.40;;;;;;4995787;28;20041;-91
2023/01/14 08:44:10;;;;;;;16.83;3.05;;;9.40;99.30;;;;;;4995090;28;20047;-92
2023/01/14 08:46:37;;;;;;;11.57;3.07;;;9.40;99.30;;;;;;4995268;28;20077;-85
2023/01/14 08:49:04;;;;;;;25.77;2.88;;;9.40;99.20;;;;;;4993074;28;20327;-82
2023/01/14 08:51:30;;;;;;;10.00;1.98;;;9.30;99.30;;;;;;4994222;28;20096;-82
2023/01/14 08:53:57;;;;;;;10.75;2.20;;;9.50;99.20;;;;;;4994689;28;20018;-84
2023/01/14 08:56:22;;;;;;;16.55;2.00;;;9.40;99.10;;;;;;4993508;28;20050;-84
2023/01/14 08:58:48;;;;;;;17.17;2.58;;;9.40;99.10;;;;;;4994768;28;20448;-81
2023/01/14 09:01:14;;;;;;;19.67;3.15;;;9.40;99.00;;;;;;4994686;28;20034;-87
2023/01/14 09:03:42;;;;;;;16.58;2.33;;;9.40;99.10;;;;;;4994021;28;20023;-83
2023/01/14 09:06:10;;;;;;;12.27;2.47;;;9.50;99.20;;;;;;4995261;28;20026;-83
2023/01/14 09:17:19;;;;;;;11.73;2.08;;;9.40;99.00;;;;;;5013426;28;20048;-84
2023/01/14 09:19:50;;;;;;;16.58;3.13;;;9.50;99.30;;;;;;5012645;28;20045;-88
2023/01/14 09:22:28;;;;;;;10.35;2.38;;;9.50;99.20;;;;;;5012528;28;20036;-84
2023/01/14 09:24:54;;;;;;;25.50;2.70;;;9.40;99.00;;;;;;5012249;28;20139;-89
2023/01/14 09:27:21;;;;;;;25.85;4.18;;;9.60;99.20;;;;;;5014547;28;20021;-82
2023/01/14 09:29:47;;;;;;;14.02;2.22;;;9.50;99.20;;;;;;5013452;28;20721;-82
2023/01/14 09:32:16;;;;;;;20.73;2.63;;;9.50;99.00;;;;;;5014583;28;20030;-82
2023/01/14 09:34:48;;;;;;;15.63;2.72;;;9.50;98.90;;;;;;5013597;28;20475;-83
2023/01/14 09:37:20;;;;;;;16.98;2.50;;;9.40;99.00;;;;;;5015025;28;20030;-87
2023/01/14 09:39:46;;;;;;;15.13;2.22;;;9.40;99.10;;;;;;5012895;28;20113;-86
2023/01/14 09:42:15;;;;;;;12.32;1.95;;;9.40;99.00;;;;;;5012792;28;20030;-84
2023/01/14 09:44:43;;;;;;;16.17;2.42;;;9.50;99.10;;;;;;5011883;28;20106;-84
2023/01/14 09:47:12;;;;;;;21.38;2.60;;;9.50;98.90;;;;;;5013360;28;20053;-81
2023/01/14 09:49:39;;;;;;;13.13;2.42;;;9.50;99.00;;;;;;5012383;28;20132;-86
2023/01/14 09:52:23;;;;;;;20.15;2.88;;;9.60;99.10;;;;;;5012330;28;20030;-81
2023/01/14 09:55:01;;;;;;;11.45;2.03;;;9.40;99.10;;;;;;5013200;28;20061;-83
2023/01/14 09:57:45;;;;;;;14.38;2.25;;;9.40;99.10;;;;;;5012704;28;20084;-83
2023/01/14 10:00:15;;;;;;;20.08;2.70;;;9.40;99.10;;;;;;5013411;28;20026;-85
2023/01/14 10:02:46;;;;;;;17.38;2.05;;;9.40;99.10;;;;;;5013907;28;20034;-86
2023/01/14 10:05:22;;;;;;;21.00;2.83;;;9.40;99.30;;;;;;5012329;28;20124;-79
2023/01/14 10:07:49;;;;;;;16.92;2.63;;;9.40;99.20;;;;;;5011556;28;20044;-81
2023/01/14 10:10:31;;;;;;;35.25;4.72;;;9.40;99.20;;;;;;5011727;28;20518;-84
2023/01/14 10:13:04;;;;;;;16.00;2.58;;;9.40;99.20;;;;;;5012623;28;20048;-86
2023/01/14 10:16:01;;;;;;;16.75;1.83;;;9.40;99.10;;;;;;5013231;28;20030;-87
2023/01/14 10:18:30;;;;;;;11.38;2.13;;;9.40;99.30;;;;;;5012868;28;20436;-90
2023/01/14 10:20:59;;;;;;;16.58;2.53;;;9.30;99.30;;;;;;5014752;28;20028;-90
2023/01/14 10:23:36;;;;;;;10.50;2.45;;;9.30;99.40;;;;;;5011785;28;20038;-85
2023/01/14 10:26:11;;;;;;;13.40;2.00;;;9.30;99.40;;;;;;5011837;28;20045;-89
2023/01/14 10:28:44;;;;;;;16.20;2.92;;;9.30;99.60;;;;;;5011980;28;20038;-85
2023/01/14 10:31:18;;;;;;;15.60;2.70;;;9.30;99.60;;;;;;5014151;28;20041;-84
2023/01/14 10:33:45;;;;;;;12.60;2.10;;;9.30;99.60;;;;;;5013365;28;20042;-84
2023/01/14 10:36:19;;;;;;;22.25;2.35;;;9.30;99.60;;;;;;5014428;28;20025;-88
2023/01/14 10:38:45;;;;;;;11.98;2.75;;;9.30;99.70;;;;;;5012767;28;20037;-88
2023/01/14 10:41:12;;;;;;;9.68;2.17;;;9.30;99.70;;;;;;5013161;28;20030;-82
2023/01/14 10:43:44;;;;;;;11.23;1.97;;;9.30;99.80;;;;;;5012368;28;20415;-78
2023/01/14 10:46:18;;;;;;;17.13;2.22;;;9.40;99.80;;;;;;5012084;28;20057;-82
2023/01/14 10:48:50;;;;;;;22.58;3.13;;;9.30;99.90;;;;;;5015866;28;20065;-88
2023/01/14 10:51:37;;;;;;;12.10;1.80;;;9.40;99.90;;;;;;5016749;28;20061;-85
2023/01/14 10:54:27;;;;;;;19.77;2.47;;;9.30;99.90;;;;;;5014660;28;20034;-84
2023/01/14 10:57:12;;;;;;;13.73;1.85;;;9.30;99.90;;;;;;5014132;28;20042;-87
2023/01/14 10:59:51;;;;;;;10.93;1.48;;;9.40;99.90;;;;;;5012196;28;20034;-86
2023/01/14 11:02:35;;;;;;;15.95;2.17;;;9.40;99.90;;;;;;5013400;28;20037;-86
2023/01/14 11:05:21;;;;;;;17.20;2.22;;;9.40;99.90;;;;;;5015379;28;20030;-86
2023/01/14 11:07:50;;;;;;;8.88;1.77;;;9.30;99.90;;;;;;5013676;28;20061;-82
2023/01/14 11:10:21;;;;;;;8.95;1.65;;;9.30;99.90;;;;;;5013128;28;20058;-81
2023/01/14 11:12:47;;;;;;;13.23;2.58;;;9.20;99.90;;;;;;5013958;28;20427;-83
2023/01/14 11:15:38;;;;;;;14.23;2.20;;;9.20;99.90;;;;;;5013597;28;20033;-85
2023/01/14 11:18:19;;;;;;;11.88;2.28;;;9.10;99.90;;;;;;5009102;28;20046;-81
2023/01/14 11:21:06;;;;;;;13.65;1.73;;;9.10;99.90;;;;;;5015737;28;20030;-84
2023/01/14 11:23:33;;;;;;;9.32;2.25;;;9.20;99.90;;;;;;5017554;28;20050;-88
2023/01/14 11:26:07;;;;;;;17.42;1.80;;;9.20;99.90;;;;;;5017233;28;20353;-85
2023/01/14 11:28:38;;;;;;;11.50;2.35;;;9.10;99.90;;;;;;5019009;28;20037;-85
2023/01/14 11:31:05;;;;;;;10.15;1.70;;;9.10;99.90;;;;;;5018368;28;20097;-85
2023/01/14 11:33:32;;;;;;;17.80;2.83;;;9.10;99.90;;;;;;5018130;28;20053;-87
2023/01/14 11:35:58;;;;;;;10.10;2.15;;;9.10;99.90;;;;;;5017863;28;20026;-82
2023/01/14 11:38:26;;;;;;;17.13;1.70;;;9.10;99.90;;;;;;5016927;28;20179;-89
2023/01/14 11:44:01;;;;;;;12.93;1.63;;;9.00;99.90;;;;;;5016578;28;20033;-85
2023/01/14 11:46:28;;;;;;;18.60;2.38;;;9.00;99.90;;;;;;5015021;28;20199;-85
2023/01/14 11:49:18;;;;;;;14.68;2.47;;;8.90;99.90;;;;;;5016985;28;20292;-84
2023/01/14 11:52:02;;;;;;;9.95;2.67;;;8.90;99.90;;;;;;5013043;28;20157;-84
2023/01/14 11:54:38;;;;;;;14.77;2.70;;;8.90;99.90;;;;;;5019937;28;20037;-90
2023/01/14 11:57:11;;;;;;;12.20;2.25;;;8.90;99.90;;;;;;5020852;28;20030;-88
2023/01/14 11:59:38;;;;;;;8.85;1.58;;;9.00;99.90;;;;;;5019691;28;20030;-84
2023/01/14 12:02:25;;;;;;;17.45;2.50;;;9.00;99.90;;;;;;5019548;28;20044;-82
2023/01/14 12:05:00;;;;;;;14.10;2.30;;;9.00;99.90;;;;;;5023153;28;20053;-88
2023/01/14 12:07:46;;;;;;;10.00;2.00;;;9.00;99.90;;;;;;5019100;28;20132;-80
2023/01/14 12:10:40;;;;;;;13.25;1.85;;;9.00;99.90;;;;;;5017075;28;20045;-84
2023/01/14 12:18:54;;;;;;;11.18;2.35;;;9.10;99.90;;;;;;5018910;28;24676;-94
2023/01/14 12:21:26;;;;;;;11.13;2.25;;;9.10;99.90;;;;;;5015601;28;20121;-88
2023/01/14 12:24:03;;;;;;;13.52;2.38;;;9.10;99.90;;;;;;5017525;28;20452;-85
2023/01/14 12:26:38;;;;;;;7.63;1.80;;;9.00;99.90;;;;;;5015914;28;20045;-84
2023/01/14 12:29:09;;;;;;;10.65;2.22;;;9.00;99.90;;;;;;5016391;28;20038;-91
2023/01/14 12:31:40;;;;;;;12.07;2.70;;;9.00;99.90;;;;;;5017468;28;20042;-89
2023/01/14 12:34:21;;;;;;;15.02;2.72;;;9.20;99.90;;;;;;5018123;28;20053;-85
2023/01/14 12:37:03;;;;;;;16.15;2.45;;;9.10;99.90;;;;;;5014763;28;20376;-83
2023/01/14 12:48:06;;;;;;;8.63;1.77;;;9.10;99.90;;;;;;5014673;28;20036;-81
2023/01/14 12:50:39;;;;;;;14.68;2.05;;;9.20;99.90;;;;;;5014765;28;20033;-80
2023/01/14 12:53:05;;;;;;;12.25;1.98;;;9.10;99.90;;;;;;5012639;28;20041;-80
2023/01/14 12:55:39;;;;;;;8.80;2.20;;;9.10;99.90;;;;;;5013723;28;20030;-78
2023/01/14 12:58:14;;;;;;;16.50;3.30;;;9.10;99.90;;;;;;5014053;28;20038;-79
2023/01/14 13:00:40;;;;;;;8.50;1.95;;;9.30;99.90;;;;;;5012895;28;20121;-80
2023/01/14 13:03:17;;;;;;;12.48;2.38;;;9.10;99.90;;;;;;5014211;28;20030;-80
2023/01/14 13:05:44;;;;;;;16.25;1.88;;;9.10;99.90;;;;;;5014190;28;20404;-86
2023/01/14 13:08:19;;;;;;;10.23;2.67;;;9.20;99.90;;;;;;5011708;28;20034;-80
2023/01/14 13:10:45;;;;;;;14.52;2.45;;;9.20;99.90;;;;;;5011880;28;20048;-79
2023/01/14 13:13:21;;;;;;;14.88;2.20;;;9.20;99.90;;;;;;5009378;28;20492;-79
2023/01/14 13:15:47;;;;;;;8.70;1.48;;;9.30;99.90;;;;;;4993859;28;20043;-79
2023/01/14 13:18:34;;;;;;;12.52;1.88;;;9.30;99.90;;;;;;4993865;28;20058;-81
2023/01/14 13:21:37;;;;;;;8.80;2.17;;;9.30;99.90;;;;;;4993469;28;20096;-81
2023/01/14 13:24:04;;;;;;;4.68;1.50;;;9.20;99.90;;;;;;4984358;28;20030;-81
2023/01/14 13:26:29;;;;;;;10.73;1.58;;;9.20;99.90;;;;;;4992180;28;20042;-79
2023/01/14 13:29:19;;;;;;;8.43;1.60;;;9.20;99.90;;;;;;4993437;28;20030;-80
2023/01/14 13:31:46;;;;;;;12.82;1.88;;;9.30;99.90;;;;;;4992209;28;20046;-81
2023/01/14 13:34:20;;;;;;;4.57;1.55;;;9.20;99.90;;;;;;4992269;28;20026;-80
2023/01/14 13:37:08;;;;;;;10.10;3.08;;;9.30;99.90;;;;;;4992192;28;20042;-81
2023/01/14 13:39:34;;;;;;;3.08;1.33;;;9.30;99.90;;;;;;4992246;28;20046;-80
2023/01/14 13:42:16;;;;;;;7.65;1.55;;;9.30;99.90;;;;;;4992770;28;20408;-80
2023/01/14 13:44:48;;;;;;;6.43;1.23;;;9.30;99.90;;;;;;4993032;28;20121;-79
2023/01/14 13:47:25;;;;;;;4.95;1.40;;;9.30;99.90;;;;;;4991913;28;20030;-79
2023/01/14 13:50:30;;;;;;;6.18;1.00;;;9.30;99.90;;;;;;4991536;28;20089;-79
2023/01/14 13:53:24;;;;;;;4.45;1.13;;;9.40;99.90;;;;;;4981468;28;20031;-79
2023/01/14 13:55:59;;;;;;;5.28;1.33;;;9.40;99.90;;;;;;4992489;28;20041;-79
2023/01/14 13:58:40;;;;;;;3.47;1.00;;;9.40;99.90;;;;;;4993277;28;20034;-79
2023/01/14 14:01:28;;;;;;;4.43;0.75;;;9.40;99.90;;;;;;4992867;28;20031;-80
2023/01/14 14:03:55;;;;;;;3.47;1.20;;;9.40;99.90;;;;;;4992320;28;20030;-78
2023/01/14 14:06:21;;;;;;;5.23;1.20;;;9.50;99.90;;;;;;4992974;28;20028;-80